Time;durP1;ratioP1;P1;durP2;ratioP2;P2;SDS_P1;SDS_P2;PMS_P1;PMS_P2;Temp;Humidity;BMP_temperature;BMP_pressure;BME280_temperature;BME280_humidity;BME280_pressure;Samples;Min_cycle;Max_cycle;Signal;HPM_P1;HPM_P2
2021/12/21 00:00:17;;;;;;;;;;;;;;;-3.11;75.07;99569.83;1705385;81;21070;-72
2021/12/21 00:02:49;;;;;;;0.83;0.40;;;;;;;-3.11;74.64;99578.95;1710990;82;20166;-73
2021/12/21 00:05:19;;;;;;;0.20;0.20;;;;;;;-3.21;74.25;99575.76;1712176;82;21065;-76
2021/12/21 00:07:50;;;;;;;2.73;0.60;;;;;;;-3.20;74.40;99586.55;1714283;82;21002;-77
2021/12/21 00:10:21;;;;;;;0.57;0.30;;;;;;;-3.21;74.17;99588.80;1711431;82;21635;-76
2021/12/21 00:18:27;;;;;;;0.60;0.53;;;;;;;-3.33;74.92;99599.70;1703281;82;21454;-72
2021/12/21 00:25:40;;;;;;;0.60;0.50;;;;;;;-3.43;76.36;99602.63;1731165;81;20978;-73
2021/12/21 00:28:08;;;;;;;0.50;0.40;;;;;;;-3.42;76.21;99607.39;1731017;81;21026;-72
2021/12/21 00:30:35;;;;;;;0.37;0.27;;;;;;;-3.42;75.87;99608.21;1700639;83;21110;-73
2021/12/21 00:33:01;;;;;;;0.30;0.20;;;;;;;-3.47;75.63;99602.52;1733776;81;21005;-74
2021/12/21 00:35:28;;;;;;;0.60;0.60;;;;;;;-3.48;75.33;99615.20;1741249;81;21552;-71
2021/12/21 00:37:56;;;;;;;0.40;0.40;;;;;;;-3.52;75.13;99619.81;1729886;81;21084;-74
2021/12/21 00:40:22;;;;;;;1.23;0.30;;;;;;;-3.57;74.61;99617.19;1696566;83;21058;-72
2021/12/21 00:42:48;;;;;;;0.62;0.33;;;;;;;-3.60;74.52;99618.72;1703397;82;21179;-72
2021/12/21 00:45:14;;;;;;;0.70;0.40;;;;;;;-3.64;74.52;99618.11;1751018;80;21092;-72
2021/12/21 00:47:46;;;;;;;0.20;0.17;;;;;;;-3.65;74.68;99617.77;1773203;80;21085;-70
2021/12/21 00:50:16;;;;;;;0.60;0.30;;;;;;;-3.67;75.11;99621.41;1767672;80;21016;-70
2021/12/21 00:52:37;;;;;;;0.50;0.33;;;;;;;-3.69;74.64;99627.22;1766173;80;21053;-72
2021/12/21 00:55:07;;;;;;;0.20;0.20;;;;;;;-3.74;74.75;99629.70;1768768;80;20969;-72
2021/12/21 00:57:33;;;;;;;0.70;0.70;;;;;;;-3.73;74.80;99628.77;1763766;80;21010;-72
2021/12/21 00:59:59;;;;;;;0.88;0.50;;;;;;;-3.73;74.68;99635.28;1767084;80;21021;-72
2021/12/21 01:02:25;;;;;;;2.80;1.15;;;;;;;-3.74;73.81;99638.81;1760219;80;21023;-71
2021/12/21 01:04:52;;;;;;;1.05;0.45;;;;;;;-3.78;74.24;99639.98;1752888;80;21115;-72
2021/12/21 01:07:26;;;;;;;1.73;0.50;;;;;;;-3.80;74.49;99642.36;1764309;80;22337;-71
2021/12/21 01:18:06;;;;;;;0.43;0.30;;;;;;;-3.86;74.01;99644.09;1779552;79;21525;-73
2021/12/21 01:20:38;;;;;;;1.63;0.60;;;;;;;-3.80;73.86;99650.17;1782695;79;21503;-73
2021/12/21 01:25:54;;;;;;;0.30;0.30;;;;;;;-3.81;72.88;99649.31;1771156;80;20989;-71
2021/12/21 01:30:58;;;;;;;0.73;0.20;;;;;;;-3.97;72.05;99655.31;1773234;80;21016;-70
2021/12/21 01:35:40;;;;;;;0.20;0.20;;;;;;;-4.01;72.24;99668.17;1741290;81;21081;-71
2021/12/21 01:41:39;;;;;;;1.10;0.37;;;;;;;-4.02;71.92;99669.95;1772313;80;21484;-73
2021/12/21 01:51:22;;;;;;;1.60;0.70;;;;;;;-3.83;72.69;99673.34;1769168;80;21039;-72
2021/12/21 01:53:51;;;;;;;1.27;0.80;;;;;;;-3.78;72.59;99676.45;1785443;80;21099;-73
2021/12/21 01:56:19;;;;;;;2.07;1.00;;;;;;;-3.73;72.80;99680.86;1762167;79;20989;-70
2021/12/21 01:58:47;;;;;;;1.23;0.50;;;;;;;-3.67;72.81;99676.11;1736930;81;21028;-74
2021/12/21 02:01:17;;;;;;;1.57;0.77;;;;;;;-3.68;72.30;99683.11;1767794;79;21068;-71
2021/12/21 02:03:47;;;;;;;0.70;0.53;;;;;;;-3.69;71.72;99680.16;1755478;80;20989;-74
2021/12/21 02:06:17;;;;;;;1.60;0.77;;;;;;;-3.71;71.82;99685.95;1766322;79;21146;-70
2021/12/21 02:08:45;;;;;;;0.90;0.50;;;;;;;-3.71;72.10;99689.86;1764339;80;20993;-72
2021/12/21 02:11:13;;;;;;;0.63;0.30;;;;;;;-3.68;72.03;99701.34;1754353;80;21016;-74
2021/12/21 02:13:45;;;;;;;0.80;0.60;;;;;;;-3.66;72.07;99705.14;1772511;80;21638;-72
2021/12/21 02:16:08;;;;;;;0.20;0.20;;;;;;;-3.62;71.47;99702.66;1756161;80;21056;-70
2021/12/21 02:21:17;;;;;;;2.10;0.50;;;;;;;-3.65;71.69;99723.75;1773712;80;20990;-74
2021/12/21 02:23:36;;;;;;;0.43;0.30;;;;;;;-3.65;71.42;99721.14;1769896;80;20981;-72
2021/12/21 02:26:21;;;;;;;0.63;0.50;;;;;;;-3.62;71.56;99719.11;1773897;80;21048;-71
2021/12/21 02:28:47;;;;;;;0.93;0.63;;;;;;;-3.61;71.56;99716.88;1779662;80;21020;-72
2021/12/21 02:31:02;;;;;;;2.00;0.40;;;;;;;-3.59;71.52;99722.81;1775998;80;21510;-73
2021/12/21 02:33:28;;;;;;;;;;;;;;;-3.56;71.04;99724.34;1785669;80;21535;-73
2021/12/21 02:35:57;;;;;;;1.40;0.30;;;;;;;-3.57;70.88;99735.73;1792996;80;20135;-73
2021/12/21 02:38:25;;;;;;;0.53;0.30;;;;;;;-3.64;70.60;99734.51;1786437;79;21048;-73
2021/12/21 02:40:52;;;;;;;0.77;0.40;;;;;;;-3.67;70.12;99725.16;1743469;81;21556;-69
2021/12/21 02:43:19;;;;;;;1.43;0.20;;;;;;;-3.68;70.21;99738.28;1743713;81;21045;-70
2021/12/21 02:45:46;;;;;;;0.20;0.20;;;;;;;-3.68;70.03;99739.59;1775191;80;20968;-71
2021/12/21 02:48:13;;;;;;;0.60;0.17;;;;;;;-3.68;70.36;99739.59;1776465;80;21073;-74
2021/12/21 02:50:42;;;;;;;0.40;0.40;;;;;;;-3.69;69.74;99741.81;1772393;80;21052;-77
2021/12/21 02:53:09;;;;;;;0.20;0.10;;;;;;;-3.72;69.70;99738.50;1712522;82;21028;-76
2021/12/21 02:55:40;;;;;;;0.50;0.10;;;;;;;-3.77;69.61;99747.14;1776296;78;21004;-74
2021/12/21 02:58:07;;;;;;;0.77;0.30;;;;;;;-3.79;69.78;99745.09;1800880;78;20944;-78
2021/12/21 03:00:35;;;;;;;0.65;0.65;;;;;;;-3.82;69.73;99749.23;1802583;78;21028;-76
2021/12/21 03:03:07;;;;;;;0.60;0.40;;;;;;;-3.82;70.41;99748.41;1802996;78;21491;-71
2021/12/21 03:05:30;;;;;;;0.40;0.20;;;;;;;-3.84;69.95;99746.36;1798199;78;21017;-76
2021/12/21 03:10:26;;;;;;;0.20;0.10;;;;;;;-3.92;70.18;99759.94;1803828;78;21477;-79
2021/12/21 03:15:27;;;;;;;0.40;0.20;;;;;;;-4.00;70.01;99766.99;1790735;78;21556;-68
2021/12/21 03:17:57;;;;;;;1.03;0.23;;;;;;;-4.03;70.24;99769.83;1804865;78;21096;-75
2021/12/21 03:20:25;;;;;;;0.33;0.30;;;;;;;-4.04;70.35;99778.57;1801206;78;21490;-76
2021/12/21 03:22:51;;;;;;;0.37;0.20;;;;;;;-4.00;70.31;99771.38;1800100;78;21478;-77
2021/12/21 03:25:19;;;;;;;0.20;0.20;;;;;;;-4.00;70.30;99780.01;1803993;78;21646;-76
2021/12/21 03:27:45;;;;;;;0.53;0.20;;;;;;;-3.99;70.66;99778.26;1797727;78;21129;-77
2021/12/21 03:30:15;;;;;;;0.47;0.33;;;;;;;-3.99;70.44;99788.20;1803341;78;21045;-77
2021/12/21 03:32:43;;;;;;;0.20;0.20;;;;;;;-4.03;70.58;99788.05;1805004;78;21086;-76
2021/12/21 03:35:10;;;;;;;0.40;0.28;;;;;;;-4.04;70.79;99780.34;1790812;78;21029;-77
2021/12/21 03:37:37;;;;;;;2.57;0.47;;;;;;;-4.05;70.88;99783.44;1801337;78;21025;-73
2021/12/21 03:40:06;;;;;;;0.50;0.30;;;;;;;-4.08;70.97;99782.81;1802250;78;20982;-76
2021/12/21 03:42:33;;;;;;;0.60;0.37;;;;;;;-4.06;71.01;99783.05;1802485;78;21037;-72
2021/12/21 03:44:59;;;;;;;0.40;0.20;;;;;;;-4.03;71.06;99780.70;1792050;78;20996;-75
2021/12/21 03:47:25;;;;;;;0.85;0.30;;;;;;;-4.00;70.97;99782.61;1802246;78;21049;-76
2021/12/21 03:49:58;;;;;;;0.47;0.27;;;;;;;-3.97;71.01;99787.61;1801713;78;21374;-73
2021/12/21 03:52:26;;;;;;;0.67;0.30;;;;;;;-3.94;70.88;99790.02;1801858;78;21016;-73
2021/12/21 03:55:00;;;;;;;0.77;0.30;;;;;;;-3.95;70.26;99780.52;1798896;78;21039;-73
2021/12/21 03:57:26;;;;;;;0.70;0.30;;;;;;;-3.97;70.25;99793.30;1761104;79;20961;-77
2021/12/21 03:59:55;;;;;;;;;;;;;;;-4.00;70.49;99796.11;1776203;79;21138;-68
2021/12/21 04:02:29;;;;;;;0.87;0.40;;;;;;;-4.00;70.76;99798.71;1774300;80;20442;-76
2021/12/21 04:04:58;;;;;;;1.10;0.67;;;;;;;-4.02;71.25;99791.48;1774454;80;21062;-76
2021/12/21 04:07:24;;;;;;;3.27;0.50;;;;;;;-4.02;71.16;99788.88;1778232;80;21073;-76
2021/12/21 04:09:51;;;;;;;1.13;0.50;;;;;;;-4.00;71.24;99790.91;1767049;80;20981;-77
2021/12/21 04:12:17;;;;;;;0.30;0.30;;;;;;;-3.96;71.44;99796.25;1776034;80;21000;-75
2021/12/21 04:14:43;;;;;;;1.55;1.05;;;;;;;-3.95;71.60;99803.13;1774252;80;20954;-71
2021/12/21 04:17:17;;;;;;;1.12;1.00;;;;;;;-3.90;71.79;99797.11;1761773;80;21029;-76
2021/12/21 04:19:38;;;;;;;1.57;0.70;;;;;;;-3.92;71.84;99785.97;1775406;80;21080;-77
2021/12/21 04:22:04;;;;;;;1.50;0.50;;;;;;;-3.96;71.74;99810.56;1780813;79;20954;-74
2021/12/21 04:24:30;;;;;;;0.72;0.40;;;;;;;-4.04;73.32;99810.28;1801195;78;21093;-76
2021/12/21 04:26:56;;;;;;;1.65;0.40;;;;;;;-4.12;73.58;99823.84;1792734;78;21072;-70
2021/12/21 04:29:22;;;;;;;0.30;0.30;;;;;;;-4.31;73.19;99822.98;1792335;78;21025;-70
2021/12/21 04:31:48;;;;;;;0.75;0.20;;;;;;;-4.41;73.05;99819.33;1799941;78;21012;-70
2021/12/21 04:34:14;;;;;;;0.20;0.20;;;;;;;-4.47;73.17;99824.97;1756246;79;21021;-70
2021/12/21 04:36:44;;;;;;;0.62;0.40;;;;;;;-4.53;72.71;99830.12;1766887;80;21087;-70
2021/12/21 04:39:24;;;;;;;0.50;0.20;;;;;;;-4.60;71.93;99837.48;1767514;80;21072;-70
2021/12/21 04:41:42;;;;;;;0.43;0.20;;;;;;;-4.70;71.92;99839.06;1766095;80;21549;-73
2021/12/21 04:44:07;;;;;;;0.93;0.20;;;;;;;-4.76;72.15;99836.41;1760425;80;21081;-74
2021/12/21 04:46:34;;;;;;;0.82;0.80;;;;;;;-4.82;72.16;99843.77;1770000;80;21502;-70
2021/12/21 04:49:00;;;;;;;1.60;0.30;;;;;;;-4.82;72.42;99843.77;1766998;80;21007;-71
2021/12/21 04:51:28;;;;;;;0.93;0.40;;;;;;;-4.80;72.93;99850.99;1770102;80;21053;-72
2021/12/21 04:53:55;;;;;;;0.80;0.30;;;;;;;-4.80;72.62;99859.65;1769656;80;21106;-72
2021/12/21 04:56:21;;;;;;;1.95;0.57;;;;;;;-4.76;72.92;99856.37;1776968;80;21213;-73
2021/12/21 04:58:47;;;;;;;0.82;0.30;;;;;;;-4.78;72.74;99858.25;1775608;80;21449;-71
2021/12/21 05:01:15;;;;;;;2.62;0.40;;;;;;;-4.87;73.37;99866.18;1773803;79;21009;-72
2021/12/21 05:03:42;;;;;;;0.70;0.20;;;;;;;-4.91;73.98;99863.42;1768504;79;21064;-73
2021/12/21 05:06:08;;;;;;;2.67;0.45;;;;;;;-4.94;73.34;99863.61;1759843;79;21040;-70
2021/12/21 05:08:38;;;;;;;0.45;0.30;;;;;;;-4.99;73.66;99866.53;1775089;79;21040;-73
2021/12/21 05:11:05;;;;;;;2.03;0.50;;;;;;;-5.08;73.75;99874.92;1752078;79;21636;-70
2021/12/21 05:13:37;;;;;;;0.57;0.50;;;;;;;-5.11;73.68;99875.94;1743232;81;21072;-70
2021/12/21 05:16:05;;;;;;;0.40;0.40;;;;;;;-5.12;73.12;99875.59;1714840;82;21098;-73
2021/12/21 05:18:32;;;;;;;1.07;0.30;;;;;;;-5.17;72.58;99884.61;1781728;80;21530;-72
2021/12/21 05:20:59;;;;;;;1.37;0.80;;;;;;;-5.21;71.85;99879.25;1776220;80;21589;-73
2021/12/21 05:23:25;;;;;;;0.78;0.65;;;;;;;-5.23;71.60;99882.41;1775140;80;21084;-73
2021/12/21 05:25:52;;;;;;;4.10;0.88;;;;;;;-5.25;71.50;99877.31;1771282;80;21041;-71
2021/12/21 05:28:18;;;;;;;1.90;0.40;;;;;;;-5.37;71.23;99880.68;1772543;80;21109;-71
2021/12/21 05:30:45;;;;;;;0.78;0.50;;;;;;;-5.51;71.86;99890.66;1772342;80;21004;-74
2021/12/21 05:33:14;;;;;;;0.53;0.47;;;;;;;-5.63;72.50;99897.46;1754117;81;21033;-74
2021/12/21 05:35:42;;;;;;;0.57;0.57;;;;;;;-5.67;72.70;99904.61;1715172;82;21513;-71
2021/12/21 05:38:10;;;;;;;0.73;0.40;;;;;;;-5.61;72.76;99912.48;1712295;82;22106;-73
2021/12/21 05:40:41;;;;;;;1.03;0.43;;;;;;;-5.61;72.39;99916.38;1719569;82;21026;-73
2021/12/21 05:43:09;;;;;;;0.83;0.30;;;;;;;-5.65;71.65;99919.23;1768322;79;21524;-74
2021/12/21 05:45:35;;;;;;;0.67;0.40;;;;;;;-5.76;71.94;99918.63;1776945;79;21002;-72
2021/12/21 05:48:02;;;;;;;2.15;0.75;;;;;;;-5.85;71.03;99926.50;1773546;79;21012;-75
2021/12/21 05:50:29;;;;;;;2.60;0.97;;;;;;;-5.87;70.87;99930.48;1756592;79;21118;-74
2021/12/21 05:52:56;;;;;;;0.50;0.30;;;;;;;-5.81;70.88;99924.55;1751042;79;21065;-72
2021/12/21 05:55:23;;;;;;;0.82;0.42;;;;;;;-5.74;69.47;99914.99;1775449;79;22282;-73
2021/12/21 05:57:50;;;;;;;0.87;0.60;;;;;;;-5.70;68.99;99924.25;1768454;80;20997;-74
2021/12/21 06:00:21;;;;;;;1.33;0.40;;;;;;;-5.69;66.26;99932.43;1764863;80;21019;-72
2021/12/21 06:02:48;;;;;;;0.67;0.30;;;;;;;-5.71;65.07;99930.84;1768616;80;21155;-72
2021/12/21 06:05:17;;;;;;;1.37;0.30;;;;;;;-5.76;62.38;99935.03;1761121;80;21140;-73
2021/12/21 06:07:45;;;;;;;1.57;0.40;;;;;;;-5.78;61.76;99936.03;1760808;80;21609;-67
2021/12/21 06:10:16;;;;;;;1.77;0.20;;;;;;;-5.80;62.13;99944.38;1748482;80;21561;-65
2021/12/21 06:13:23;;;;;;;2.13;0.20;;;;;;;-5.81;62.65;99950.04;1770178;79;22062;-69
2021/12/21 06:15:40;;;;;;;1.70;0.30;;;;;;;-5.82;62.38;99954.87;1760270;79;21067;-66
2021/12/21 06:26:14;;;;;;;0.73;0.40;;;;;;;-5.81;62.15;99960.42;1790154;78;21017;-68
2021/12/21 06:28:43;;;;;;;1.40;0.30;;;;;;;-5.72;61.48;99974.15;1793383;78;21065;-69
2021/12/21 06:31:10;;;;;;;0.70;0.37;;;;;;;-5.71;62.11;99988.81;1791033;78;21104;-67
2021/12/21 06:33:37;;;;;;;1.83;1.00;;;;;;;-5.69;61.65;99993.45;1776001;78;20961;-66
2021/12/21 06:36:05;;;;;;;;;;;;;;;-5.73;60.80;99982.84;1769284;79;21101;-66
2021/12/21 06:38:32;;;;;;;1.07;0.43;;;;;;;-5.80;61.32;99989.36;1762661;79;20095;-67
2021/12/21 06:40:59;;;;;;;1.60;0.70;;;;;;;-5.87;61.65;99990.19;1755334;79;21019;-65
2021/12/21 06:43:25;;;;;;;;;;;;;;;-5.91;62.23;100001.68;1753044;79;21551;-68
2021/12/21 06:46:01;;;;;;;1.23;0.60;;;;;;;-5.94;61.65;100003.63;1754618;79;20117;-68
2021/12/21 06:53:44;;;;;;;0.90;0.50;;;;;;;-5.91;60.97;100008.64;1768874;79;21608;-66
2021/12/21 06:56:11;;;;;;;1.03;0.40;;;;;;;-5.89;60.57;100018.47;1768841;79;21044;-67
2021/12/21 06:58:41;;;;;;;1.70;0.60;;;;;;;-5.96;59.68;100028.39;1770113;79;21028;-67
2021/12/21 07:01:08;;;;;;;1.03;0.50;;;;;;;-6.05;59.59;100028.93;1772798;79;20973;-67
2021/12/21 07:03:36;;;;;;;1.73;0.30;;;;;;;-6.11;59.74;100025.41;1775172;79;21057;-72
2021/12/21 07:06:06;;;;;;;3.33;0.73;;;;;;;-6.21;59.30;100034.19;1756795;81;21030;-70
2021/12/21 07:08:43;;;;;;;1.87;0.97;;;;;;;-6.30;58.82;100039.44;1767796;80;20979;-70
2021/12/21 07:11:18;;;;;;;1.13;0.30;;;;;;;-6.39;59.19;100046.44;1735210;81;21025;-69
2021/12/21 07:19:07;;;;;;;0.40;0.20;;;;;;;-6.50;57.49;100052.27;1785989;80;21559;-71
2021/12/21 07:21:33;;;;;;;8.45;0.62;;;;;;;-6.53;58.28;100065.86;1767892;80;21435;-70
2021/12/21 07:23:59;;;;;;;0.40;0.30;;;;;;;-6.55;57.67;100065.11;1745701;80;21077;-70
2021/12/21 07:26:26;;;;;;;0.57;0.33;;;;;;;-6.56;56.56;100072.03;1768201;80;21026;-71
2021/12/21 07:28:55;;;;;;;1.67;1.00;;;;;;;-6.64;54.11;100075.98;1762026;80;21028;-71
2021/12/21 07:31:21;;;;;;;2.03;0.53;;;;;;;-6.73;56.19;100069.07;1747802;81;21061;-71
2021/12/21 07:33:47;;;;;;;1.00;0.72;;;;;;;-6.83;55.08;100072.28;1771374;78;21525;-71
2021/12/21 07:36:13;;;;;;;3.65;1.20;;;;;;;-6.92;56.14;100060.18;1802409;78;21052;-71
2021/12/21 07:38:39;;;;;;;0.80;0.70;;;;;;;-7.06;58.78;100069.17;1794271;78;21086;-70
2021/12/21 07:41:06;;;;;;;0.70;0.30;;;;;;;-7.01;66.47;100086.59;1793491;78;21068;-72
2021/12/21 07:43:32;;;;;;;0.60;0.60;;;;;;;-7.17;57.16;100101.30;1796428;78;21104;-70
2021/12/21 07:46:00;;;;;;;0.87;0.47;;;;;;;-7.30;58.30;100094.16;1775297;78;21483;-70
2021/12/21 07:48:28;;;;;;;1.50;0.30;;;;;;;-7.61;56.49;100092.30;1762198;80;21005;-71
2021/12/21 07:50:55;;;;;;;0.80;0.40;;;;;;;-7.61;56.49;100092.30;1773046;80;21010;-71
2021/12/21 07:53:22;;;;;;;0.63;0.40;;;;;;;-7.62;58.10;100097.59;1762938;80;21397;-71
2021/12/21 07:55:48;;;;;;;1.07;0.55;;;;;;;-7.65;57.21;100099.86;1754149;80;21100;-71
2021/12/21 07:58:16;;;;;;;1.02;1.00;;;;;;;-7.70;56.95;100114.34;1772624;80;21046;-71
2021/12/21 08:00:43;;;;;;;1.33;1.00;;;;;;;-7.65;57.95;100105.89;1776663;80;21271;-71
2021/12/21 08:03:14;;;;;;;0.63;0.37;;;;;;;-7.59;58.42;100113.80;1774341;79;21588;-71
2021/12/21 08:05:39;;;;;;;1.70;0.83;;;;;;;-7.51;58.04;100118.59;1755664;80;21062;-70
2021/12/21 08:08:18;;;;;;;2.70;1.70;;;;;;;-7.45;56.96;100121.68;1783351;79;21612;-71
2021/12/21 08:10:45;;;;;;;2.87;0.90;;;;;;;-7.45;57.56;100125.56;1775487;80;21010;-70
2021/12/21 08:13:11;;;;;;;1.47;0.77;;;;;;;-7.44;56.51;100127.25;1766734;79;21001;-71
2021/12/21 08:15:37;;;;;;;1.40;0.40;;;;;;;-7.52;56.58;100123.37;1771577;80;21058;-71
2021/12/21 08:18:06;;;;;;;1.80;0.80;;;;;;;-7.61;58.18;100118.66;1771295;80;21136;-71
2021/12/21 08:20:34;;;;;;;2.90;1.00;;;;;;;-7.67;57.80;100125.81;1764527;80;21014;-70
2021/12/21 08:23:01;;;;;;;6.43;0.93;;;;;;;-7.62;58.69;100129.95;1774814;79;21061;-71
2021/12/21 08:25:28;;;;;;;1.57;0.60;;;;;;;-7.58;57.52;100125.81;1750101;81;21031;-71
2021/12/21 08:27:56;;;;;;;0.60;0.60;;;;;;;-7.55;57.55;100128.26;1757027;79;21110;-71
2021/12/21 08:30:23;;;;;;;1.47;0.70;;;;;;;-7.62;58.48;100126.06;1771463;79;21080;-70
2021/12/21 08:32:50;;;;;;;1.13;0.37;;;;;;;-7.54;58.41;100141.56;1767744;79;21017;-71
2021/12/21 08:35:16;;;;;;;1.27;0.75;;;;;;;-7.49;57.75;100138.76;1758964;79;21052;-72
2021/12/21 08:37:51;;;;;;;1.07;0.60;;;;;;;-7.54;58.23;100144.62;1774963;79;21540;-71
2021/12/21 08:40:21;;;;;;;4.83;2.03;;;;;;;-7.53;59.24;100139.83;1774372;79;21816;-70
2021/12/21 08:42:51;;;;;;;2.47;0.97;;;;;;;-7.49;57.98;100138.76;1768702;79;20977;-70
2021/12/21 08:45:19;;;;;;;2.53;0.73;;;;;;;-7.55;58.06;100145.52;1773868;79;21540;-69
2021/12/21 08:47:46;;;;;;;2.50;0.70;;;;;;;-7.58;58.30;100152.99;1772715;79;21077;-70
2021/12/21 08:50:14;;;;;;;2.60;0.57;;;;;;;-7.58;58.58;100152.99;1758437;79;21096;-71
2021/12/21 08:52:42;;;;;;;1.67;0.70;;;;;;;-7.53;57.61;100150.19;1773828;79;21032;-71
2021/12/21 08:55:10;;;;;;;1.90;1.37;;;;;;;-7.54;57.91;100159.69;1768017;79;21163;-70
2021/12/21 08:57:36;;;;;;;4.53;0.70;;;;;;;-7.51;58.21;100156.95;1782542;79;21429;-70
2021/12/21 09:00:07;;;;;;;1.55;0.82;;;;;;;-7.42;59.14;100153.07;1785269;80;21034;-70
2021/12/21 09:02:37;;;;;;;1.10;0.60;;;;;;;-7.28;58.63;100155.77;1785459;79;21019;-70
2021/12/21 09:05:14;;;;;;;1.10;0.53;;;;;;;-7.14;57.87;100149.03;1784359;79;21007;-72
2021/12/21 09:07:39;;;;;;;0.70;0.47;;;;;;;-7.12;57.29;100159.72;1777335;79;21080;-70
2021/12/21 09:10:08;;;;;;;1.00;0.90;;;;;;;-7.09;56.34;100160.00;1784807;79;21045;-70
2021/12/21 09:12:36;;;;;;;0.87;0.70;;;;;;;-7.25;55.60;100151.73;1785399;79;21013;-72
2021/12/21 09:15:07;;;;;;;1.13;0.77;;;;;;;-7.31;56.14;100155.95;1780618;79;21426;-72
2021/12/21 09:17:34;;;;;;;2.37;0.60;;;;;;;-7.34;56.20;100156.09;1785695;79;21452;-71
2021/12/21 09:20:05;;;;;;;0.77;0.53;;;;;;;-7.35;55.90;100162.17;1780912;79;21033;-70
2021/12/21 09:22:33;;;;;;;1.40;0.60;;;;;;;-7.39;56.12;100171.02;1784534;79;21579;-71
2021/12/21 09:25:01;;;;;;;1.67;0.88;;;;;;;-7.38;56.66;100166.67;1774660;80;21494;-71
2021/12/21 09:27:27;;;;;;;2.73;0.77;;;;;;;-7.34;57.08;100161.74;1768044;80;21056;-70
2021/12/21 09:29:53;;;;;;;3.30;2.10;;;;;;;-7.25;57.05;100175.05;1765895;80;21024;-71
2021/12/21 09:32:20;;;;;;;1.95;1.65;;;;;;;-7.15;57.19;100174.58;1768888;80;20974;-71
2021/12/21 09:34:47;;;;;;;1.42;0.90;;;;;;;-7.13;55.96;100181.34;1747109;81;21595;-73
2021/12/21 09:37:17;;;;;;;1.77;1.20;;;;;;;-7.14;55.60;100184.87;1771204;79;21551;-70
2021/12/21 09:39:49;;;;;;;7.10;1.17;;;;;;;-7.17;55.68;100179.00;1768646;79;21068;-71
2021/12/21 09:42:20;;;;;;;2.83;1.60;;;;;;;-7.21;55.53;100179.62;1765348;79;21145;-71
2021/12/21 09:44:48;;;;;;;0.67;0.60;;;;;;;-7.37;54.48;100178.25;1765647;79;20973;-71
2021/12/21 09:47:15;;;;;;;2.13;0.33;;;;;;;-7.58;54.23;100178.05;1744761;81;21100;-72
2021/12/21 09:49:44;;;;;;;1.83;0.70;;;;;;;-7.87;54.56;100173.86;1771314;80;21101;-71
2021/12/21 09:52:14;;;;;;;1.97;1.03;;;;;;;-7.90;55.40;100181.30;1770874;80;21020;-71
2021/12/21 09:54:40;;;;;;;2.83;1.37;;;;;;;-7.86;56.10;100190.58;1744286;81;21065;-71
2021/12/21 09:57:08;;;;;;;1.40;1.23;;;;;;;-7.78;55.25;100190.20;1774620;79;20949;-72
2021/12/21 09:59:35;;;;;;;1.40;0.87;;;;;;;-7.71;56.17;100183.82;1773839;79;21042;-72
2021/12/21 10:02:02;;;;;;;1.98;0.75;;;;;;;-7.61;55.45;100192.43;1781407;79;20992;-71
2021/12/21 10:04:30;;;;;;;4.20;1.80;;;;;;;-7.56;54.24;100185.28;1788643;79;21065;-71
2021/12/21 10:06:58;;;;;;;4.23;1.70;;;;;;;-7.55;54.12;100189.53;1790664;79;20966;-69
2021/12/21 10:09:33;;;;;;;0.70;0.70;;;;;;;-7.54;55.04;100184.28;1786130;79;21658;-71
2021/12/21 10:12:00;;;;;;;2.27;0.73;;;;;;;-7.47;55.28;100182.23;1776799;79;20989;-70
2021/12/21 10:14:26;;;;;;;2.87;0.70;;;;;;;-7.35;54.47;100184.66;1768843;80;21212;-69
2021/12/21 10:17:06;;;;;;;0.97;0.50;;;;;;;-7.25;54.38;100184.11;1770081;80;20991;-71
2021/12/21 10:19:33;;;;;;;1.83;0.40;;;;;;;-7.10;53.82;100185.52;1769788;80;22111;-71
2021/12/21 10:22:15;;;;;;;0.60;0.57;;;;;;;-6.95;53.08;100179.56;1771749;80;21033;-70
2021/12/21 10:24:52;;;;;;;5.27;0.90;;;;;;;-6.89;52.85;100174.52;1767103;80;21052;-70
2021/12/21 10:27:23;;;;;;;1.12;0.57;;;;;;;-6.88;51.62;100186.07;1770018;80;21090;-70
2021/12/21 10:29:57;;;;;;;3.07;0.63;;;;;;;-6.99;52.18;100188.85;1768348;80;20960;-70
2021/12/21 10:32:28;;;;;;;1.07;0.83;;;;;;;-7.21;52.16;100195.16;1733761;81;21132;-70
2021/12/21 10:35:08;;;;;;;1.20;0.70;;;;;;;-7.29;51.79;100203.75;1783134;79;21055;-70
2021/12/21 10:37:39;;;;;;;0.87;0.67;;;;;;;-7.36;52.23;100208.42;1787595;79;21021;-69
2021/12/21 10:40:20;;;;;;;1.03;0.40;;;;;;;-7.31;53.05;100205.16;1790932;79;20972;-69
2021/12/21 10:43:06;;;;;;;0.93;0.63;;;;;;;-7.19;52.88;100202.39;1785475;79;21061;-70
2021/12/21 10:45:38;;;;;;;1.27;0.47;;;;;;;-7.05;53.18;100206.38;1786617;79;22285;-70
2021/12/21 10:48:08;;;;;;;1.03;0.30;;;;;;;-6.91;52.23;100197.91;1787625;79;21026;-71
2021/12/21 10:50:36;;;;;;;0.40;0.40;;;;;;;-6.86;52.01;100208.86;1723485;82;21095;-70
2021/12/21 10:53:04;;;;;;;1.30;0.40;;;;;;;-6.99;50.67;100206.52;1781824;80;20965;-71
2021/12/21 10:55:36;;;;;;;3.00;1.23;;;;;;;-7.11;52.32;100211.89;1730222;82;21494;-72
2021/12/21 10:59:42;;;;;;;2.67;1.77;;;;;;;-7.12;52.34;100206.78;1805031;77;22211;-71
2021/12/21 11:02:15;;;;;;;0.80;0.70;;;;;;;-7.15;52.43;100205.66;1712600;80;21060;-72
2021/12/21 11:04:48;;;;;;;1.57;0.63;;;;;;;-7.11;52.19;100213.19;1695071;82;21068;-70
2021/12/21 11:10:14;;;;;;;2.93;1.20;;;;;;;-7.18;52.08;100209.23;1713704;82;21376;-71
2021/12/21 11:12:48;;;;;;;0.57;0.50;;;;;;;-7.16;52.76;100215.62;1699216;81;21050;-71
2021/12/21 11:15:21;;;;;;;1.53;0.90;;;;;;;-7.19;52.09;100204.16;1722709;81;21375;-71
2021/12/21 11:17:49;;;;;;;0.63;0.50;;;;;;;-7.29;51.15;100226.63;1719302;81;21123;-70
2021/12/21 11:20:17;;;;;;;4.17;0.83;;;;;;;-7.40;51.03;100228.92;1701063;83;21572;-70
2021/12/21 11:22:47;;;;;;;2.70;1.70;;;;;;;-7.43;52.46;100231.65;1712840;81;21017;-72
2021/12/21 11:25:14;;;;;;;0.73;0.47;;;;;;;-7.40;53.23;100232.80;1698326;84;20969;-70
2021/12/21 11:27:43;;;;;;;1.67;0.80;;;;;;;-7.33;53.87;100228.97;1701200;83;21524;-72
2021/12/21 11:30:17;;;;;;;2.20;1.63;;;;;;;-7.21;53.29;100228.83;1709475;83;21005;-71
2021/12/21 11:32:48;;;;;;;2.83;1.00;;;;;;;-7.08;53.25;100231.64;1701315;83;21072;-69
2021/12/21 11:37:53;;;;;;;1.33;0.83;;;;;;;-6.99;52.23;100233.73;1689033;83;21092;-70
2021/12/21 11:40:25;;;;;;;1.23;0.70;;;;;;;-6.99;52.07;100231.61;1693389;83;20975;-70
2021/12/21 11:43:02;;;;;;;6.40;1.37;;;;;;;-6.93;52.61;100234.73;1691049;83;21087;-71
2021/12/21 11:45:46;;;;;;;1.80;0.80;;;;;;;-6.97;51.57;100247.45;1711063;83;20995;-71
2021/12/21 11:48:31;;;;;;;2.73;0.90;;;;;;;-7.06;51.74;100234.52;1714430;82;21044;-71
2021/12/21 11:51:07;;;;;;;3.47;0.93;;;;;;;-7.16;51.32;100263.55;1721562;82;21442;-71
2021/12/21 11:53:36;;;;;;;0.50;0.50;;;;;;;-7.26;51.90;100258.83;1718074;82;21030;-72
2021/12/21 11:56:05;;;;;;;2.03;0.83;;;;;;;-7.27;51.98;100259.77;1712889;82;21013;-70
2021/12/21 11:58:40;;;;;;;0.83;0.60;;;;;;;-7.29;53.83;100273.25;1690438;84;21067;-70
2021/12/21 12:01:19;;;;;;;0.63;0.43;;;;;;;-7.29;52.73;100271.95;1694586;83;21103;-71
2021/12/21 12:04:06;;;;;;;0.90;0.87;;;;;;;-7.31;52.58;100274.22;1715462;83;21084;-71
2021/12/21 12:06:48;;;;;;;2.45;1.15;;;;;;;-7.35;53.79;100277.87;1690810;83;21482;-72
2021/12/21 12:09:27;;;;;;;1.77;1.10;;;;;;;-7.38;52.77;100287.08;1685865;83;20997;-68
2021/12/21 12:12:08;;;;;;;4.80;1.07;;;;;;;-7.48;52.70;100277.64;1701538;81;21030;-71
2021/12/21 12:14:37;;;;;;;1.97;1.20;;;;;;;-7.56;52.40;100281.06;1707727;82;21550;-71
2021/12/21 12:17:20;;;;;;;2.60;0.80;;;;;;;-7.60;52.82;100274.36;1692057;82;21107;-72
2021/12/21 12:20:04;;;;;;;1.87;1.20;;;;;;;-7.55;53.41;100289.20;1701244;82;21085;-71
2021/12/21 12:22:42;;;;;;;0.93;0.50;;;;;;;-7.51;52.98;100296.76;1692401;83;21613;-70
2021/12/21 12:25:22;;;;;;;1.13;0.80;;;;;;;-7.54;52.79;100299.95;1697612;83;21311;-68
2021/12/21 12:27:52;;;;;;;5.33;2.50;;;;;;;-7.53;53.30;100297.75;1702337;83;21561;-71
2021/12/21 12:30:25;;;;;;;3.10;1.57;;;;;;;-7.49;53.68;100303.16;1697215;82;21314;-71
2021/12/21 12:33:02;;;;;;;3.00;1.57;;;;;;;-7.44;53.69;100307.20;1696403;83;21620;-71
2021/12/21 12:35:33;;;;;;;2.08;1.25;;;;;;;-7.40;53.94;100301.86;1685137;83;21781;-72
2021/12/21 12:38:15;;;;;;;1.87;0.90;;;;;;;-7.42;54.65;100298.51;1689020;83;21025;-71
2021/12/21 12:40:50;;;;;;;1.63;1.00;;;;;;;-7.46;54.21;100302.99;1697872;83;21105;-71
2021/12/21 12:43:24;;;;;;;4.97;1.50;;;;;;;-7.48;53.88;100312.16;1694346;82;21040;-71
2021/12/21 12:46:03;;;;;;;2.40;1.30;;;;;;;-7.42;53.75;100305.84;1696592;82;21079;-71
2021/12/21 12:48:32;;;;;;;1.63;0.70;;;;;;;-7.37;53.66;100319.38;1705127;82;21093;-71
2021/12/21 12:51:06;;;;;;;4.20;1.90;;;;;;;-7.34;53.40;100315.83;1679790;83;21532;-71